Bill Elmer — WDC6513 — position and weather

sailwx.info

Track history (hours):
 
Tides and Currents Weather Stations Pressure Air Temp Water Temp Dewpoint Dewpoint Depression Visibility Wind Speed Wind Dir Waves Ship Positions

Bill Elmer

More information available from US FCC via Universal Licensing System and Coast Guard Vessel Documentation Center.

Last reported at 2014-Aug-27 12:32 UTC. Time now 2014-Aug-27 19:17 UTC.
Position N 29°57' W 090°09'.

Length 55 m; draft 2.9 m.

MMSI: 367057350.

Date/timePositionNaut miles runAvg speedWind from/ knotsBaromVisibWave heightAir tempDewpointWater temp
2014-Aug-27 12:32N 29°57' W 090°09'0 0.0
2014-Aug-27 11:32N 29°57' W 090°09'0 0.0
2014-Aug-27 10:12N 29°57' W 090°09'0 0.0
2014-Aug-27 09:27N 29°57' W 090°09'0 0.0
2014-Aug-27 08:31N 29°57' W 090°09'0 0.0
2014-Aug-27 07:31N 29°57' W 090°09'0 0.0
2014-Aug-27 06:13N 29°57' W 090°09'0 0.0
2014-Aug-27 05:28N 29°57' W 090°09'0 0.0
2014-Aug-27 04:33N 29°57' W 090°09'0 0.0
2014-Aug-26 23:27N 29°57' W 090°09'  
2014-Aug-24 12:17N 29°57' W 090°09'15 0.4
2014-Aug-23 03:33N 29°60' W 090°26'3 2.8
2014-Aug-23 02:33N 30°01' W 090°28'0 0.0
2014-Aug-23 01:33N 30°01' W 090°28'0 0.0
2014-Aug-23 00:33N 30°01' W 090°28'0 0.1
2014-Aug-22 23:33N 30°02' W 090°28'6 0.9
2014-Aug-22 17:33N 30°03' W 090°34'3 0.7
2014-Aug-22 12:33N 30°03' W 090°38'1 1.3
2014-Aug-22 11:33N 30°03' W 090°40'6 6.5
2014-Aug-22 10:33N 30°00' W 090°47'5 3.9
2014-Aug-22 09:19N 30°04' W 090°51'0 0.1
2014-Aug-22 07:14N 30°04' W 090°51'0 0.0
2014-Aug-22 06:33N 30°04' W 090°51'0 0.0
2014-Aug-22 03:28N 30°04' W 090°51'0 0.0
2014-Aug-22 02:14N 30°04' W 090°51'0 0.0
2014-Aug-22 01:33N 30°04' W 090°51'0 0.0
2014-Aug-21 23:33N 30°04' W 090°51'6 4.7
2014-Aug-21 22:17N 30°08' W 090°56'  
Track history (hours):
 
Tides and Currents Weather Stations Pressure Air Temp Water Temp Dewpoint Dewpoint Depression Visibility Wind Speed Wind Dir Waves Ship Positions

Bill Elmer

More information available from US FCC via Universal Licensing System and Coast Guard Vessel Documentation Center.

Last reported at 2014-Aug-27 12:32 UTC. Time now 2014-Aug-27 19:17 UTC.
Position N 29°57' W 090°09'.

Length 55 m; draft 2.9 m.

MMSI: 367057350.

Date/timePositionNaut miles runAvg speedWind from/ knotsBaromVisibWave heightAir tempDewpointWater temp
2014-Aug-27 12:32N 29°57' W 090°09'0 0.0
2014-Aug-27 11:32N 29°57' W 090°09'0 0.0
2014-Aug-27 10:12N 29°57' W 090°09'0 0.0
2014-Aug-27 09:27N 29°57' W 090°09'0 0.0
2014-Aug-27 08:31N 29°57' W 090°09'0 0.0
2014-Aug-27 07:31N 29°57' W 090°09'0 0.0
2014-Aug-27 06:13N 29°57' W 090°09'0 0.0
2014-Aug-27 05:28N 29°57' W 090°09'0 0.0
2014-Aug-27 04:33N 29°57' W 090°09'0 0.0
2014-Aug-26 23:27N 29°57' W 090°09'  
2014-Aug-24 12:17N 29°57' W 090°09'15 0.4
2014-Aug-23 03:33N 29°60' W 090°26'3 2.8
2014-Aug-23 02:33N 30°01' W 090°28'0 0.0
2014-Aug-23 01:33N 30°01' W 090°28'0 0.0
2014-Aug-23 00:33N 30°01' W 090°28'0 0.1
2014-Aug-22 23:33N 30°02' W 090°28'6 0.9
2014-Aug-22 17:33N 30°03' W 090°34'3 0.7
2014-Aug-22 12:33N 30°03' W 090°38'1 1.3
2014-Aug-22 11:33N 30°03' W 090°40'6 6.5
2014-Aug-22 10:33N 30°00' W 090°47'5 3.9
2014-Aug-22 09:19N 30°04' W 090°51'0 0.1
2014-Aug-22 07:14N 30°04' W 090°51'0 0.0
2014-Aug-22 06:33N 30°04' W 090°51'0 0.0
2014-Aug-22 03:28N 30°04' W 090°51'0 0.0
2014-Aug-22 02:14N 30°04' W 090°51'0 0.0
2014-Aug-22 01:33N 30°04' W 090°51'0 0.0
2014-Aug-21 23:33N 30°04' W 090°51'6 4.7
2014-Aug-21 22:17N 30°08' W 090°56'  

Dump ship's entire track history